Pagina principală
METAR-TAF:

METAR-TAF

Aeroporturi :

Grangeville, Idaho, Statele Unite ale Americii

Latitudine: 45-56-33N, longitudine: 116-07-24W, elevație: 1010 m

Observații meteo curente

Raportul a fost făcut în urmă cu 48 de minute, la 12:35 UTC
Vânt calm
Temperatură 8°C
Umiditate 71%
Presiune 1013 hPa
Vizibilitate: 16.1 km
Total acoperit la o înălțime de 11000 picior

METAR: KGIC 151235Z AUTO 00000KT 10SM OVC110 08/03 A2992 RMK AO1

Ora: 06:23 (13:23 UTC)


TAF: lipsă

Observații și prognoze meteo pentru peste 4.000 de aeroporturi (rapoarte METAR și TAF).

Stațiile disponibile sunt reprezentate pe hartă prin puncte galbene și roșii.

Țineți indicatorul mouse-ului pe punctul dorit pentru a vedea denumirea stației.

Apoi, faceți clic pentru a vedea observațiile și prognozele meteorologice.

Pentru a schimba harta: Pentru mărire, faceți clic pe butoanele verzi cu cruce neagră; pentru micșorare, pe butonul verde cu o liniuță; pentru hărți învecinate, pe săgețile verzi.


METAR-TAF: